sensor_id;sensor_type;location;lat;lon;timestamp;P1;durP1;ratioP1;P2;durP2;ratioP2
53710;SDS011;39605;52.704;6.752;2023-06-26T00:00:20;5.78;;;5.47;;
53710;SDS011;39605;52.704;6.752;2023-06-26T00:02:46;5.60;;;5.38;;
53710;SDS011;39605;52.704;6.752;2023-06-26T00:05:12;5.68;;;5.40;;
53710;SDS011;39605;52.704;6.752;2023-06-26T00:07:38;6.18;;;5.80;;
53710;SDS011;39605;52.704;6.752;2023-06-26T00:10:05;5.40;;;5.20;;
53710;SDS011;39605;52.704;6.752;2023-06-26T00:12:31;5.20;;;5.00;;
53710;SDS011;39605;52.704;6.752;2023-06-26T00:14:57;5.70;;;5.40;;
53710;SDS011;39605;52.704;6.752;2023-06-26T00:17:24;6.00;;;5.55;;
53710;SDS011;39605;52.704;6.752;2023-06-26T00:19:50;6.63;;;6.13;;
53710;SDS011;39605;52.704;6.752;2023-06-26T00:22:16;6.15;;;5.85;;
53710;SDS011;39605;52.704;6.752;2023-06-26T00:24:42;6.07;;;5.78;;
53710;SDS011;39605;52.704;6.752;2023-06-26T00:27:10;6.40;;;6.00;;
53710;SDS011;39605;52.704;6.752;2023-06-26T00:29:36;6.07;;;5.78;;
53710;SDS011;39605;52.704;6.752;2023-06-26T00:32:03;6.82;;;6.53;;
53710;SDS011;39605;52.704;6.752;2023-06-26T00:34:29;6.68;;;6.28;;
53710;SDS011;39605;52.704;6.752;2023-06-26T00:36:56;6.55;;;6.13;;
53710;SDS011;39605;52.704;6.752;2023-06-26T00:39:22;5.88;;;5.53;;
53710;SDS011;39605;52.704;6.752;2023-06-26T00:41:51;6.30;;;5.93;;
53710;SDS011;39605;52.704;6.752;2023-06-26T00:44:18;6.85;;;6.43;;
53710;SDS011;39605;52.704;6.752;2023-06-26T00:46:45;6.53;;;6.03;;
53710;SDS011;39605;52.704;6.752;2023-06-26T00:49:11;6.72;;;6.30;;
53710;SDS011;39605;52.704;6.752;2023-06-26T00:51:38;6.85;;;6.35;;
53710;SDS011;39605;52.704;6.752;2023-06-26T00:54:04;6.85;;;6.47;;
53710;SDS011;39605;52.704;6.752;2023-06-26T00:56:31;6.13;;;5.72;;
53710;SDS011;39605;52.704;6.752;2023-06-26T00:58:57;6.50;;;6.10;;
53710;SDS011;39605;52.704;6.752;2023-06-26T01:01:23;6.57;;;6.28;;
53710;SDS011;39605;52.704;6.752;2023-06-26T01:03:51;6.80;;;6.40;;
53710;SDS011;39605;52.704;6.752;2023-06-26T01:06:18;6.78;;;6.38;;
53710;SDS011;39605;52.704;6.752;2023-06-26T01:08:44;6.70;;;6.20;;
53710;SDS011;39605;52.704;6.752;2023-06-26T01:11:11;6.93;;;6.53;;
53710;SDS011;39605;52.704;6.752;2023-06-26T01:13:37;6.00;;;5.70;;
53710;SDS011;39605;52.704;6.752;2023-06-26T01:16:04;6.72;;;6.43;;
53710;SDS011;39605;52.704;6.752;2023-06-26T01:18:31;6.30;;;5.90;;
53710;SDS011;39605;52.704;6.752;2023-06-26T01:20:58;6.70;;;6.30;;
53710;SDS011;39605;52.704;6.752;2023-06-26T01:23:29;6.57;;;6.18;;
53710;SDS011;39605;52.704;6.752;2023-06-26T01:28:28;7.07;;;6.68;;
53710;SDS011;39605;52.704;6.752;2023-06-26T01:30:54;6.13;;;5.82;;
53710;SDS011;39605;52.704;6.752;2023-06-26T01:33:21;6.47;;;6.10;;
53710;SDS011;39605;52.704;6.752;2023-06-26T01:35:47;7.20;;;6.60;;
53710;SDS011;39605;52.704;6.752;2023-06-26T01:38:17;6.95;;;6.65;;
53710;SDS011;39605;52.704;6.752;2023-06-26T01:40:43;7.13;;;6.80;;
53710;SDS011;39605;52.704;6.752;2023-06-26T01:46:04;6.80;;;6.40;;
53710;SDS011;39605;52.704;6.752;2023-06-26T01:48:32;7.07;;;6.68;;
53710;SDS011;39605;52.704;6.752;2023-06-26T01:50:59;7.25;;;6.68;;
53710;SDS011;39605;52.704;6.752;2023-06-26T01:53:25;6.75;;;6.20;;
53710;SDS011;39605;52.704;6.752;2023-06-26T01:55:53;6.50;;;6.10;;
53710;SDS011;39605;52.704;6.752;2023-06-26T01:58:22;6.75;;;6.40;;
53710;SDS011;39605;52.704;6.752;2023-06-26T02:00:49;6.65;;;6.25;;
53710;SDS011;39605;52.704;6.752;2023-06-26T02:03:15;7.07;;;6.38;;
53710;SDS011;39605;52.704;6.752;2023-06-26T02:05:41;6.57;;;6.28;;
53710;SDS011;39605;52.704;6.752;2023-06-26T02:08:08;7.28;;;6.82;;
53710;SDS011;39605;52.704;6.752;2023-06-26T02:10:35;6.93;;;6.53;;
53710;SDS011;39605;52.704;6.752;2023-06-26T02:13:01;7.10;;;6.55;;
53710;SDS011;39605;52.704;6.752;2023-06-26T02:15:27;7.30;;;6.68;;
53710;SDS011;39605;52.704;6.752;2023-06-26T02:17:53;7.18;;;6.78;;
53710;SDS011;39605;52.704;6.752;2023-06-26T02:20:19;6.95;;;6.55;;
53710;SDS011;39605;52.704;6.752;2023-06-26T02:22:45;6.25;;;6.00;;
53710;SDS011;39605;52.704;6.752;2023-06-26T02:25:11;6.90;;;6.60;;
53710;SDS011;39605;52.704;6.752;2023-06-26T02:27:38;7.90;;;7.47;;
53710;SDS011;39605;52.704;6.752;2023-06-26T02:30:04;7.93;;;7.38;;
53710;SDS011;39605;52.704;6.752;2023-06-26T02:32:30;7.78;;;7.28;;
53710;SDS011;39605;52.704;6.752;2023-06-26T02:34:56;7.35;;;6.85;;
53710;SDS011;39605;52.704;6.752;2023-06-26T02:37:22;6.97;;;6.68;;
53710;SDS011;39605;52.704;6.752;2023-06-26T02:39:48;7.78;;;7.30;;
53710;SDS011;39605;52.704;6.752;2023-06-26T02:42:14;7.45;;;7.05;;
53710;SDS011;39605;52.704;6.752;2023-06-26T02:44:40;7.70;;;7.20;;
53710;SDS011;39605;52.704;6.752;2023-06-26T02:47:06;7.97;;;7.57;;
53710;SDS011;39605;52.704;6.752;2023-06-26T02:49:32;7.53;;;7.07;;
53710;SDS011;39605;52.704;6.752;2023-06-26T02:51:58;7.93;;;7.53;;
53710;SDS011;39605;52.704;6.752;2023-06-26T02:54:24;7.63;;;6.93;;
53710;SDS011;39605;52.704;6.752;2023-06-26T02:56:50;8.40;;;7.70;;
53710;SDS011;39605;52.704;6.752;2023-06-26T02:59:17;7.40;;;6.90;;
53710;SDS011;39605;52.704;6.752;2023-06-26T03:01:43;8.23;;;7.72;;
53710;SDS011;39605;52.704;6.752;2023-06-26T03:04:09;7.95;;;7.22;;
53710;SDS011;39605;52.704;6.752;2023-06-26T03:06:35;7.95;;;7.28;;
53710;SDS011;39605;52.704;6.752;2023-06-26T03:09:01;8.63;;;7.93;;
53710;SDS011;39605;52.704;6.752;2023-06-26T03:11:28;9.65;;;8.95;;
53710;SDS011;39605;52.704;6.752;2023-06-26T03:13:54;8.45;;;7.82;;
53710;SDS011;39605;52.704;6.752;2023-06-26T03:16:20;8.50;;;8.00;;
53710;SDS011;39605;52.704;6.752;2023-06-26T03:18:46;9.63;;;8.93;;
53710;SDS011;39605;52.704;6.752;2023-06-26T03:21:12;9.25;;;8.73;;
53710;SDS011;39605;52.704;6.752;2023-06-26T03:23:38;9.85;;;9.05;;
53710;SDS011;39605;52.704;6.752;2023-06-26T03:26:04;9.70;;;9.10;;
53710;SDS011;39605;52.704;6.752;2023-06-26T03:28:30;10.20;;;9.38;;
53710;SDS011;39605;52.704;6.752;2023-06-26T03:30:56;10.77;;;9.88;;
53710;SDS011;39605;52.704;6.752;2023-06-26T03:33:22;11.18;;;10.50;;
53710;SDS011;39605;52.704;6.752;2023-06-26T03:35:48;10.27;;;9.57;;
53710;SDS011;39605;52.704;6.752;2023-06-26T03:38:14;10.93;;;10.30;;
53710;SDS011;39605;52.704;6.752;2023-06-26T03:40:40;11.48;;;10.65;;
53710;SDS011;39605;52.704;6.752;2023-06-26T03:43:06;11.93;;;11.13;;
53710;SDS011;39605;52.704;6.752;2023-06-26T03:45:32;12.05;;;11.10;;
53710;SDS011;39605;52.704;6.752;2023-06-26T03:47:58;13.05;;;12.10;;
53710;SDS011;39605;52.704;6.752;2023-06-26T03:50:25;12.23;;;11.35;;
53710;SDS011;39605;52.704;6.752;2023-06-26T03:52:51;12.10;;;11.25;;
53710;SDS011;39605;52.704;6.752;2023-06-26T03:55:19;13.65;;;12.73;;
53710;SDS011;39605;52.704;6.752;2023-06-26T03:57:47;13.57;;;12.65;;
53710;SDS011;39605;52.704;6.752;2023-06-26T04:00:14;12.57;;;11.70;;
53710;SDS011;39605;52.704;6.752;2023-06-26T04:02:40;13.98;;;12.93;;
53710;SDS011;39605;52.704;6.752;2023-06-26T04:05:06;13.48;;;12.57;;
53710;SDS011;39605;52.704;6.752;2023-06-26T04:07:32;14.20;;;13.30;;
53710;SDS011;39605;52.704;6.752;2023-06-26T04:09:59;13.10;;;12.20;;
53710;SDS011;39605;52.704;6.752;2023-06-26T04:12:25;13.57;;;12.68;;
53710;SDS011;39605;52.704;6.752;2023-06-26T04:14:51;13.85;;;12.65;;
53710;SDS011;39605;52.704;6.752;2023-06-26T04:17:17;13.95;;;12.80;;
53710;SDS011;39605;52.704;6.752;2023-06-26T04:19:43;12.65;;;11.75;;
53710;SDS011;39605;52.704;6.752;2023-06-26T04:22:09;13.65;;;12.63;;
53710;SDS011;39605;52.704;6.752;2023-06-26T04:24:35;12.93;;;12.02;;
53710;SDS011;39605;52.704;6.752;2023-06-26T04:27:01;12.75;;;11.80;;
53710;SDS011;39605;52.704;6.752;2023-06-26T04:29:28;13.52;;;12.27;;
53710;SDS011;39605;52.704;6.752;2023-06-26T04:31:54;12.02;;;11.25;;
53710;SDS011;39605;52.704;6.752;2023-06-26T04:34:32;13.05;;;12.05;;
53710;SDS011;39605;52.704;6.752;2023-06-26T04:37:01;13.82;;;12.68;;
53710;SDS011;39605;52.704;6.752;2023-06-26T04:39:29;12.90;;;11.95;;
53710;SDS011;39605;52.704;6.752;2023-06-26T04:41:55;12.32;;;11.45;;
53710;SDS011;39605;52.704;6.752;2023-06-26T04:44:22;10.90;;;10.20;;
53710;SDS011;39605;52.704;6.752;2023-06-26T04:46:48;11.32;;;10.45;;
53710;SDS011;39605;52.704;6.752;2023-06-26T04:49:16;11.38;;;10.38;;
53710;SDS011;39605;52.704;6.752;2023-06-26T04:51:43;10.55;;;9.63;;
53710;SDS011;39605;52.704;6.752;2023-06-26T04:54:10;9.82;;;9.13;;
53710;SDS011;39605;52.704;6.752;2023-06-26T04:56:36;10.82;;;10.02;;
53710;SDS011;39605;52.704;6.752;2023-06-26T04:59:04;9.82;;;8.82;;
53710;SDS011;39605;52.704;6.752;2023-06-26T05:01:31;8.73;;;7.90;;
53710;SDS011;39605;52.704;6.752;2023-06-26T05:03:57;7.60;;;6.95;;
53710;SDS011;39605;52.704;6.752;2023-06-26T05:06:23;7.32;;;6.63;;
53710;SDS011;39605;52.704;6.752;2023-06-26T05:08:49;7.57;;;6.80;;
53710;SDS011;39605;52.704;6.752;2023-06-26T05:11:16;7.60;;;6.20;;
53710;SDS011;39605;52.704;6.752;2023-06-26T05:13:42;7.45;;;6.10;;
53710;SDS011;39605;52.704;6.752;2023-06-26T05:16:08;6.25;;;5.65;;
53710;SDS011;39605;52.704;6.752;2023-06-26T05:18:34;9.80;;;5.60;;
53710;SDS011;39605;52.704;6.752;2023-06-26T05:21:01;8.05;;;6.00;;
53710;SDS011;39605;52.704;6.752;2023-06-26T05:23:27;10.30;;;5.85;;
53710;SDS011;39605;52.704;6.752;2023-06-26T05:25:56;6.53;;;5.75;;
53710;SDS011;39605;52.704;6.752;2023-06-26T05:28:23;7.97;;;5.65;;
53710;SDS011;39605;52.704;6.752;2023-06-26T05:30:50;9.10;;;5.80;;
53710;SDS011;39605;52.704;6.752;2023-06-26T05:33:17;8.35;;;6.25;;
53710;SDS011;39605;52.704;6.752;2023-06-26T05:35:47;8.88;;;5.90;;
53710;SDS011;39605;52.704;6.752;2023-06-26T05:38:14;8.10;;;5.97;;
53710;SDS011;39605;52.704;6.752;2023-06-26T05:40:40;8.10;;;5.93;;
53710;SDS011;39605;52.704;6.752;2023-06-26T05:43:06;8.20;;;6.57;;
53710;SDS011;39605;52.704;6.752;2023-06-26T05:45:33;11.68;;;5.93;;
53710;SDS011;39605;52.704;6.752;2023-06-26T05:47:59;10.48;;;6.25;;
53710;SDS011;39605;52.704;6.752;2023-06-26T05:50:25;9.48;;;5.80;;
53710;SDS011;39605;52.704;6.752;2023-06-26T05:52:52;11.07;;;6.25;;
53710;SDS011;39605;52.704;6.752;2023-06-26T05:55:18;11.95;;;6.78;;
53710;SDS011;39605;52.704;6.752;2023-06-26T05:57:45;9.95;;;5.85;;
53710;SDS011;39605;52.704;6.752;2023-06-26T06:00:11;9.65;;;6.25;;
53710;SDS011;39605;52.704;6.752;2023-06-26T06:02:38;10.57;;;5.40;;
53710;SDS011;39605;52.704;6.752;2023-06-26T06:05:04;7.68;;;5.55;;
53710;SDS011;39605;52.704;6.752;2023-06-26T06:07:34;13.27;;;5.80;;
53710;SDS011;39605;52.704;6.752;2023-06-26T06:10:00;10.48;;;6.10;;
53710;SDS011;39605;52.704;6.752;2023-06-26T06:12:26;9.05;;;4.93;;
53710;SDS011;39605;52.704;6.752;2023-06-26T06:14:53;6.00;;;4.90;;
53710;SDS011;39605;52.704;6.752;2023-06-26T06:17:19;8.10;;;5.07;;
53710;SDS011;39605;52.704;6.752;2023-06-26T06:19:46;8.73;;;5.28;;
53710;SDS011;39605;52.704;6.752;2023-06-26T06:22:12;7.70;;;4.90;;
53710;SDS011;39605;52.704;6.752;2023-06-26T06:24:38;5.53;;;5.03;;
53710;SDS011;39605;52.704;6.752;2023-06-26T06:27:04;8.25;;;4.78;;
53710;SDS011;39605;52.704;6.752;2023-06-26T06:29:30;9.50;;;4.47;;
53710;SDS011;39605;52.704;6.752;2023-06-26T06:31:57;8.30;;;5.05;;
53710;SDS011;39605;52.704;6.752;2023-06-26T06:34:23;5.57;;;3.67;;
53710;SDS011;39605;52.704;6.752;2023-06-26T06:36:49;4.18;;;3.00;;
53710;SDS011;39605;52.704;6.752;2023-06-26T06:39:15;3.80;;;2.75;;
53710;SDS011;39605;52.704;6.752;2023-06-26T06:41:41;4.50;;;2.72;;
53710;SDS011;39605;52.704;6.752;2023-06-26T06:44:07;5.15;;;2.33;;
53710;SDS011;39605;52.704;6.752;2023-06-26T06:46:33;3.38;;;1.90;;
53710;SDS011;39605;52.704;6.752;2023-06-26T06:49:00;3.92;;;2.00;;
53710;SDS011;39605;52.704;6.752;2023-06-26T06:51:26;5.15;;;1.20;;
53710;SDS011;39605;52.704;6.752;2023-06-26T06:53:52;3.22;;;1.65;;
53710;SDS011;39605;52.704;6.752;2023-06-26T06:56:18;3.72;;;1.25;;
53710;SDS011;39605;52.704;6.752;2023-06-26T06:58:44;3.53;;;1.20;;
53710;SDS011;39605;52.704;6.752;2023-06-26T07:01:14;1.80;;;0.80;;
53710;SDS011;39605;52.704;6.752;2023-06-26T07:03:40;2.55;;;0.95;;
53710;SDS011;39605;52.704;6.752;2023-06-26T07:06:06;3.33;;;0.57;;
53710;SDS011;39605;52.704;6.752;2023-06-26T07:08:33;2.78;;;0.60;;
53710;SDS011;39605;52.704;6.752;2023-06-26T07:10:59;1.83;;;0.40;;
53710;SDS011;39605;52.704;6.752;2023-06-26T07:13:25;1.95;;;0.40;;
53710;SDS011;39605;52.704;6.752;2023-06-26T07:15:51;1.95;;;0.35;;
53710;SDS011;39605;52.704;6.752;2023-06-26T07:18:17;1.38;;;0.40;;
53710;SDS011;39605;52.704;6.752;2023-06-26T07:20:43;5.00;;;0.40;;
53710;SDS011;39605;52.704;6.752;2023-06-26T07:23:09;1.88;;;0.40;;
53710;SDS011;39605;52.704;6.752;2023-06-26T07:25:35;2.47;;;0.50;;
53710;SDS011;39605;52.704;6.752;2023-06-26T07:28:02;2.17;;;0.50;;
53710;SDS011;39605;52.704;6.752;2023-06-26T07:30:28;2.83;;;0.60;;
53710;SDS011;39605;52.704;6.752;2023-06-26T07:32:54;2.53;;;0.50;;
53710;SDS011;39605;52.704;6.752;2023-06-26T07:35:20;3.75;;;0.60;;
53710;SDS011;39605;52.704;6.752;2023-06-26T07:37:46;1.92;;;0.43;;
53710;SDS011;39605;52.704;6.752;2023-06-26T07:40:12;3.47;;;0.52;;
53710;SDS011;39605;52.704;6.752;2023-06-26T07:42:39;2.17;;;0.60;;
53710;SDS011;39605;52.704;6.752;2023-06-26T07:45:05;6.43;;;0.50;;
53710;SDS011;39605;52.704;6.752;2023-06-26T07:47:36;3.45;;;0.60;;
53710;SDS011;39605;52.704;6.752;2023-06-26T07:50:02;2.10;;;0.60;;
53710;SDS011;39605;52.704;6.752;2023-06-26T07:52:29;1.35;;;0.40;;
53710;SDS011;39605;52.704;6.752;2023-06-26T07:54:57;2.22;;;0.50;;
53710;SDS011;39605;52.704;6.752;2023-06-26T07:57:24;1.85;;;0.55;;
53710;SDS011;39605;52.704;6.752;2023-06-26T07:59:50;0.95;;;0.30;;
53710;SDS011;39605;52.704;6.752;2023-06-26T08:02:16;2.15;;;0.60;;
53710;SDS011;39605;52.704;6.752;2023-06-26T08:04:42;1.15;;;0.40;;
53710;SDS011;39605;52.704;6.752;2023-06-26T08:07:09;2.53;;;0.40;;
53710;SDS011;39605;52.704;6.752;2023-06-26T08:09:35;1.67;;;0.52;;
53710;SDS011;39605;52.704;6.752;2023-06-26T08:12:01;1.45;;;0.35;;
53710;SDS011;39605;52.704;6.752;2023-06-26T08:14:27;1.02;;;0.32;;
53710;SDS011;39605;52.704;6.752;2023-06-26T08:16:53;1.13;;;0.40;;
53710;SDS011;39605;52.704;6.752;2023-06-26T08:19:20;2.53;;;0.50;;
53710;SDS011;39605;52.704;6.752;2023-06-26T08:21:47;0.95;;;0.40;;
53710;SDS011;39605;52.704;6.752;2023-06-26T08:24:13;1.52;;;0.40;;
53710;SDS011;39605;52.704;6.752;2023-06-26T08:26:44;1.15;;;0.30;;
53710;SDS011;39605;52.704;6.752;2023-06-26T08:29:10;1.52;;;0.40;;
53710;SDS011;39605;52.704;6.752;2023-06-26T08:31:37;2.75;;;0.30;;
53710;SDS011;39605;52.704;6.752;2023-06-26T08:34:03;3.00;;;0.40;;
53710;SDS011;39605;52.704;6.752;2023-06-26T08:36:30;1.77;;;0.40;;
53710;SDS011;39605;52.704;6.752;2023-06-26T08:38:56;2.63;;;0.30;;
53710;SDS011;39605;52.704;6.752;2023-06-26T08:41:22;1.20;;;0.30;;
53710;SDS011;39605;52.704;6.752;2023-06-26T08:43:48;1.27;;;0.30;;
53710;SDS011;39605;52.704;6.752;2023-06-26T08:46:16;2.63;;;0.40;;
53710;SDS011;39605;52.704;6.752;2023-06-26T08:48:45;2.72;;;0.57;;
53710;SDS011;39605;52.704;6.752;2023-06-26T08:51:12;1.50;;;0.30;;
53710;SDS011;39605;52.704;6.752;2023-06-26T08:53:49;2.17;;;0.40;;
53710;SDS011;39605;52.704;6.752;2023-06-26T08:56:17;1.45;;;0.30;;
53710;SDS011;39605;52.704;6.752;2023-06-26T08:58:46;3.60;;;0.40;;
53710;SDS011;39605;52.704;6.752;2023-06-26T09:01:12;1.40;;;0.35;;
53710;SDS011;39605;52.704;6.752;2023-06-26T09:03:39;1.65;;;0.40;;
53710;SDS011;39605;52.704;6.752;2023-06-26T09:06:06;1.65;;;0.40;;
53710;SDS011;39605;52.704;6.752;2023-06-26T09:08:32;2.45;;;0.30;;
53710;SDS011;39605;52.704;6.752;2023-06-26T09:10:58;0.93;;;0.40;;
53710;SDS011;39605;52.704;6.752;2023-06-26T09:13:25;1.25;;;0.40;;
53710;SDS011;39605;52.704;6.752;2023-06-26T09:15:52;1.15;;;0.43;;
53710;SDS011;39605;52.704;6.752;2023-06-26T09:18:20;3.65;;;0.60;;
53710;SDS011;39605;52.704;6.752;2023-06-26T09:20:46;0.93;;;0.40;;
53710;SDS011;39605;52.704;6.752;2023-06-26T09:23:13;1.65;;;0.40;;
53710;SDS011;39605;52.704;6.752;2023-06-26T09:25:42;2.08;;;0.40;;
53710;SDS011;39605;52.704;6.752;2023-06-26T09:28:09;3.00;;;0.60;;
53710;SDS011;39605;52.704;6.752;2023-06-26T09:30:35;4.63;;;0.50;;
53710;SDS011;39605;52.704;6.752;2023-06-26T09:33:14;2.50;;;0.40;;
53710;SDS011;39605;52.704;6.752;2023-06-26T09:35:41;1.63;;;0.55;;
53710;SDS011;39605;52.704;6.752;2023-06-26T09:38:07;2.08;;;0.50;;
53710;SDS011;39605;52.704;6.752;2023-06-26T09:40:33;1.98;;;0.50;;
53710;SDS011;39605;52.704;6.752;2023-06-26T09:43:06;1.52;;;0.60;;
53710;SDS011;39605;52.704;6.752;2023-06-26T09:45:36;1.67;;;0.40;;
53710;SDS011;39605;52.704;6.752;2023-06-26T09:48:05;5.78;;;0.73;;
53710;SDS011;39605;52.704;6.752;2023-06-26T09:50:33;5.82;;;0.60;;
53710;SDS011;39605;52.704;6.752;2023-06-26T09:53:12;2.13;;;0.70;;
53710;SDS011;39605;52.704;6.752;2023-06-26T09:55:39;4.50;;;0.50;;
53710;SDS011;39605;52.704;6.752;2023-06-26T09:58:10;4.43;;;0.50;;
53710;SDS011;39605;52.704;6.752;2023-06-26T10:00:39;1.60;;;0.63;;
53710;SDS011;39605;52.704;6.752;2023-06-26T10:03:06;3.72;;;0.70;;
53710;SDS011;39605;52.704;6.752;2023-06-26T10:05:32;2.33;;;0.60;;
53710;SDS011;39605;52.704;6.752;2023-06-26T10:07:58;1.48;;;0.63;;
53710;SDS011;39605;52.704;6.752;2023-06-26T10:10:24;2.17;;;0.52;;
53710;SDS011;39605;52.704;6.752;2023-06-26T10:12:51;3.42;;;0.50;;
53710;SDS011;39605;52.704;6.752;2023-06-26T10:15:20;0.90;;;0.40;;
53710;SDS011;39605;52.704;6.752;2023-06-26T10:17:47;3.00;;;0.60;;
53710;SDS011;39605;52.704;6.752;2023-06-26T10:20:13;2.70;;;0.38;;
53710;SDS011;39605;52.704;6.752;2023-06-26T10:22:42;1.83;;;0.47;;
53710;SDS011;39605;52.704;6.752;2023-06-26T10:25:09;2.33;;;0.57;;
53710;SDS011;39605;52.704;6.752;2023-06-26T10:27:37;2.65;;;0.43;;
53710;SDS011;39605;52.704;6.752;2023-06-26T10:30:04;1.23;;;0.40;;
53710;SDS011;39605;52.704;6.752;2023-06-26T10:32:32;3.75;;;0.60;;
53710;SDS011;39605;52.704;6.752;2023-06-26T10:34:59;2.88;;;0.50;;
53710;SDS011;39605;52.704;6.752;2023-06-26T10:37:40;3.95;;;0.70;;
53710;SDS011;39605;52.704;6.752;2023-06-26T10:40:08;1.35;;;0.35;;
53710;SDS011;39605;52.704;6.752;2023-06-26T10:42:34;2.03;;;0.40;;
53710;SDS011;39605;52.704;6.752;2023-06-26T10:47:39;2.42;;;0.50;;
53710;SDS011;39605;52.704;6.752;2023-06-26T10:50:19;1.98;;;0.30;;
53710;SDS011;39605;52.704;6.752;2023-06-26T10:52:45;2.80;;;0.30;;
53710;SDS011;39605;52.704;6.752;2023-06-26T10:55:13;4.68;;;0.40;;
53710;SDS011;39605;52.704;6.752;2023-06-26T10:57:40;3.28;;;0.60;;
53710;SDS011;39605;52.704;6.752;2023-06-26T11:00:13;3.08;;;0.40;;
53710;SDS011;39605;52.704;6.752;2023-06-26T11:02:58;2.05;;;0.40;;
53710;SDS011;39605;52.704;6.752;2023-06-26T11:08:05;2.33;;;0.70;;
53710;SDS011;39605;52.704;6.752;2023-06-26T11:10:50;2.92;;;0.40;;
53710;SDS011;39605;52.704;6.752;2023-06-26T11:13:17;1.15;;;0.30;;
53710;SDS011;39605;52.704;6.752;2023-06-26T11:15:44;2.00;;;0.30;;
53710;SDS011;39605;52.704;6.752;2023-06-26T11:18:10;2.15;;;0.30;;
53710;SDS011;39605;52.704;6.752;2023-06-26T11:20:38;2.42;;;0.40;;
53710;SDS011;39605;52.704;6.752;2023-06-26T11:23:04;2.78;;;0.30;;
53710;SDS011;39605;52.704;6.752;2023-06-26T11:25:34;0.95;;;0.30;;
53710;SDS011;39605;52.704;6.752;2023-06-26T11:28:00;2.33;;;0.40;;
53710;SDS011;39605;52.704;6.752;2023-06-26T11:30:26;2.53;;;0.32;;
53710;SDS011;39605;52.704;6.752;2023-06-26T11:32:52;3.63;;;0.40;;
53710;SDS011;39605;52.704;6.752;2023-06-26T11:35:23;2.35;;;0.32;;
53710;SDS011;39605;52.704;6.752;2023-06-26T11:37:59;2.88;;;0.35;;
53710;SDS011;39605;52.704;6.752;2023-06-26T11:40:29;1.55;;;0.32;;
53710;SDS011;39605;52.704;6.752;2023-06-26T11:43:00;2.58;;;0.50;;
53710;SDS011;39605;52.704;6.752;2023-06-26T11:45:30;1.77;;;0.30;;
53710;SDS011;39605;52.704;6.752;2023-06-26T11:47:57;1.92;;;0.60;;
53710;SDS011;39605;52.704;6.752;2023-06-26T11:50:24;3.65;;;0.57;;
53710;SDS011;39605;52.704;6.752;2023-06-26T11:52:54;2.83;;;0.50;;
53710;SDS011;39605;52.704;6.752;2023-06-26T11:55:23;2.08;;;0.43;;
53710;SDS011;39605;52.704;6.752;2023-06-26T11:57:50;6.00;;;0.25;;
53710;SDS011;39605;52.704;6.752;2023-06-26T12:00:16;1.00;;;0.30;;
53710;SDS011;39605;52.704;6.752;2023-06-26T12:02:44;2.28;;;0.30;;
53710;SDS011;39605;52.704;6.752;2023-06-26T12:05:11;2.97;;;0.40;;
53710;SDS011;39605;52.704;6.752;2023-06-26T12:07:37;1.35;;;0.40;;
53710;SDS011;39605;52.704;6.752;2023-06-26T12:10:03;3.03;;;0.35;;
53710;SDS011;39605;52.704;6.752;2023-06-26T12:12:31;2.97;;;0.30;;
53710;SDS011;39605;52.704;6.752;2023-06-26T12:14:58;1.77;;;0.22;;
53710;SDS011;39605;52.704;6.752;2023-06-26T12:17:25;2.08;;;0.30;;
53710;SDS011;39605;52.704;6.752;2023-06-26T12:19:51;1.08;;;0.20;;
53710;SDS011;39605;52.704;6.752;2023-06-26T12:22:17;1.52;;;0.20;;
53710;SDS011;39605;52.704;6.752;2023-06-26T12:24:44;2.15;;;0.50;;
53710;SDS011;39605;52.704;6.752;2023-06-26T12:27:11;5.07;;;0.32;;
53710;SDS011;39605;52.704;6.752;2023-06-26T12:29:38;1.98;;;0.20;;
53710;SDS011;39605;52.704;6.752;2023-06-26T12:32:07;1.80;;;0.20;;
53710;SDS011;39605;52.704;6.752;2023-06-26T12:34:34;3.13;;;0.55;;
53710;SDS011;39605;52.704;6.752;2023-06-26T12:37:02;3.30;;;0.20;;
53710;SDS011;39605;52.704;6.752;2023-06-26T12:39:29;3.65;;;0.30;;
53710;SDS011;39605;52.704;6.752;2023-06-26T12:41:56;2.42;;;0.30;;
53710;SDS011;39605;52.704;6.752;2023-06-26T12:44:29;2.05;;;0.45;;
53710;SDS011;39605;52.704;6.752;2023-06-26T12:47:01;2.03;;;0.30;;
53710;SDS011;39605;52.704;6.752;2023-06-26T12:49:38;2.97;;;0.30;;
53710;SDS011;39605;52.704;6.752;2023-06-26T12:52:05;2.55;;;0.20;;
53710;SDS011;39605;52.704;6.752;2023-06-26T12:54:33;1.80;;;0.20;;
53710;SDS011;39605;52.704;6.752;2023-06-26T12:56:59;1.90;;;0.25;;
53710;SDS011;39605;52.704;6.752;2023-06-26T12:59:25;0.82;;;0.20;;
53710;SDS011;39605;52.704;6.752;2023-06-26T13:01:51;3.72;;;0.20;;
53710;SDS011;39605;52.704;6.752;2023-06-26T13:04:18;3.88;;;0.20;;
53710;SDS011;39605;52.704;6.752;2023-06-26T13:06:44;1.20;;;0.22;;
53710;SDS011;39605;52.704;6.752;2023-06-26T13:09:10;1.65;;;0.17;;
53710;SDS011;39605;52.704;6.752;2023-06-26T13:11:37;1.02;;;0.20;;
53710;SDS011;39605;52.704;6.752;2023-06-26T13:14:03;1.58;;;0.28;;
53710;SDS011;39605;52.704;6.752;2023-06-26T13:16:29;2.03;;;0.20;;
53710;SDS011;39605;52.704;6.752;2023-06-26T13:18:57;3.88;;;0.40;;
53710;SDS011;39605;52.704;6.752;2023-06-26T13:21:23;3.17;;;0.20;;
53710;SDS011;39605;52.704;6.752;2023-06-26T13:23:49;2.92;;;0.20;;
53710;SDS011;39605;52.704;6.752;2023-06-26T13:26:15;1.95;;;0.20;;
53710;SDS011;39605;52.704;6.752;2023-06-26T13:28:42;2.58;;;0.30;;
53710;SDS011;39605;52.704;6.752;2023-06-26T13:31:08;2.50;;;0.20;;
53710;SDS011;39605;52.704;6.752;2023-06-26T13:33:34;1.70;;;0.20;;
53710;SDS011;39605;52.704;6.752;2023-06-26T13:36:00;7.78;;;0.40;;
53710;SDS011;39605;52.704;6.752;2023-06-26T13:38:29;1.65;;;0.20;;
53710;SDS011;39605;52.704;6.752;2023-06-26T13:40:56;1.52;;;0.30;;
53710;SDS011;39605;52.704;6.752;2023-06-26T13:43:23;3.40;;;0.63;;
53710;SDS011;39605;52.704;6.752;2023-06-26T13:45:49;1.20;;;0.30;;
53710;SDS011;39605;52.704;6.752;2023-06-26T13:48:15;12.45;;;1.48;;
53710;SDS011;39605;52.704;6.752;2023-06-26T13:50:41;7.55;;;2.33;;
53710;SDS011;39605;52.704;6.752;2023-06-26T13:53:07;9.38;;;2.50;;
53710;SDS011;39605;52.704;6.752;2023-06-26T13:55:34;2.45;;;0.20;;
53710;SDS011;39605;52.704;6.752;2023-06-26T13:58:00;2.65;;;0.20;;
53710;SDS011;39605;52.704;6.752;2023-06-26T14:00:30;2.15;;;0.20;;
53710;SDS011;39605;52.704;6.752;2023-06-26T14:02:56;2.97;;;0.20;;
53710;SDS011;39605;52.704;6.752;2023-06-26T14:05:22;2.30;;;0.20;;
53710;SDS011;39605;52.704;6.752;2023-06-26T14:07:48;3.28;;;0.20;;
53710;SDS011;39605;52.704;6.752;2023-06-26T14:10:14;0.93;;;0.20;;
53710;SDS011;39605;52.704;6.752;2023-06-26T14:12:40;2.03;;;0.50;;
53710;SDS011;39605;52.704;6.752;2023-06-26T14:15:06;3.05;;;0.30;;
53710;SDS011;39605;52.704;6.752;2023-06-26T14:17:33;3.63;;;0.40;;
53710;SDS011;39605;52.704;6.752;2023-06-26T14:19:59;2.95;;;0.22;;
53710;SDS011;39605;52.704;6.752;2023-06-26T14:22:25;1.70;;;0.40;;
53710;SDS011;39605;52.704;6.752;2023-06-26T14:24:52;1.30;;;0.20;;
53710;SDS011;39605;52.704;6.752;2023-06-26T14:27:19;1.98;;;0.52;;
53710;SDS011;39605;52.704;6.752;2023-06-26T14:29:45;1.50;;;0.20;;
53710;SDS011;39605;52.704;6.752;2023-06-26T14:32:11;3.05;;;0.30;;
53710;SDS011;39605;52.704;6.752;2023-06-26T14:34:37;3.35;;;0.60;;
53710;SDS011;39605;52.704;6.752;2023-06-26T14:37:03;1.30;;;0.30;;
53710;SDS011;39605;52.704;6.752;2023-06-26T14:39:29;1.20;;;0.28;;
53710;SDS011;39605;52.704;6.752;2023-06-26T14:41:55;2.40;;;0.30;;
53710;SDS011;39605;52.704;6.752;2023-06-26T14:44:21;2.67;;;0.22;;
53710;SDS011;39605;52.704;6.752;2023-06-26T14:46:47;1.92;;;0.20;;
53710;SDS011;39605;52.704;6.752;2023-06-26T14:49:13;3.95;;;0.20;;
53710;SDS011;39605;52.704;6.752;2023-06-26T14:51:39;2.83;;;0.30;;
53710;SDS011;39605;52.704;6.752;2023-06-26T14:54:05;1.98;;;0.20;;